sensor_id;sensor_type;location;lat;lon;timestamp;P1;durP1;ratioP1;P2;durP2;ratioP2
51368;SDS011;37459;51.416;5.502;2022-08-20T00:00:56;17.15;;;12.30;;
51368;SDS011;37459;51.416;5.502;2022-08-20T00:03:23;17.60;;;11.70;;
51368;SDS011;37459;51.416;5.502;2022-08-20T00:05:54;18.25;;;11.98;;
51368;SDS011;37459;51.416;5.502;2022-08-20T00:08:22;17.52;;;12.00;;
51368;SDS011;37459;51.416;5.502;2022-08-20T00:10:52;19.95;;;12.32;;
51368;SDS011;37459;51.416;5.502;2022-08-20T00:13:20;19.00;;;12.27;;
51368;SDS011;37459;51.416;5.502;2022-08-20T00:15:48;18.70;;;12.38;;
51368;SDS011;37459;51.416;5.502;2022-08-20T00:18:15;18.02;;;12.90;;
51368;SDS011;37459;51.416;5.502;2022-08-20T00:20:43;17.45;;;12.23;;
51368;SDS011;37459;51.416;5.502;2022-08-20T00:23:12;17.83;;;11.95;;
51368;SDS011;37459;51.416;5.502;2022-08-20T00:25:39;17.42;;;12.60;;
51368;SDS011;37459;51.416;5.502;2022-08-20T00:28:08;18.92;;;12.88;;
51368;SDS011;37459;51.416;5.502;2022-08-20T00:30:36;17.40;;;12.68;;
51368;SDS011;37459;51.416;5.502;2022-08-20T00:33:04;19.13;;;13.23;;
51368;SDS011;37459;51.416;5.502;2022-08-20T00:35:35;17.35;;;12.50;;
51368;SDS011;37459;51.416;5.502;2022-08-20T00:38:04;17.67;;;12.35;;
51368;SDS011;37459;51.416;5.502;2022-08-20T00:40:31;15.45;;;12.60;;
51368;SDS011;37459;51.416;5.502;2022-08-20T00:43:01;22.58;;;13.20;;
51368;SDS011;37459;51.416;5.502;2022-08-20T00:45:33;18.05;;;12.65;;
51368;SDS011;37459;51.416;5.502;2022-08-20T00:48:00;18.63;;;13.25;;
51368;SDS011;37459;51.416;5.502;2022-08-20T00:50:29;17.02;;;13.30;;
51368;SDS011;37459;51.416;5.502;2022-08-20T00:52:59;17.05;;;12.70;;
51368;SDS011;37459;51.416;5.502;2022-08-20T00:55:28;18.85;;;13.23;;
51368;SDS011;37459;51.416;5.502;2022-08-20T00:57:57;21.95;;;13.32;;
51368;SDS011;37459;51.416;5.502;2022-08-20T01:00:27;19.25;;;13.23;;
51368;SDS011;37459;51.416;5.502;2022-08-20T01:02:57;18.60;;;13.25;;
51368;SDS011;37459;51.416;5.502;2022-08-20T01:05:24;20.25;;;13.35;;
51368;SDS011;37459;51.416;5.502;2022-08-20T01:07:51;20.85;;;13.35;;
51368;SDS011;37459;51.416;5.502;2022-08-20T01:10:20;17.17;;;13.00;;
51368;SDS011;37459;51.416;5.502;2022-08-20T01:12:50;19.08;;;12.90;;
51368;SDS011;37459;51.416;5.502;2022-08-20T01:15:19;19.30;;;13.13;;
51368;SDS011;37459;51.416;5.502;2022-08-20T01:17:49;20.63;;;13.05;;
51368;SDS011;37459;51.416;5.502;2022-08-20T01:20:20;20.40;;;14.30;;
51368;SDS011;37459;51.416;5.502;2022-08-20T01:22:52;18.17;;;12.90;;
51368;SDS011;37459;51.416;5.502;2022-08-20T01:25:43;23.08;;;14.05;;
51368;SDS011;37459;51.416;5.502;2022-08-20T01:28:13;17.50;;;12.73;;
51368;SDS011;37459;51.416;5.502;2022-08-20T01:30:43;22.98;;;13.80;;
51368;SDS011;37459;51.416;5.502;2022-08-20T01:33:10;18.65;;;13.05;;
51368;SDS011;37459;51.416;5.502;2022-08-20T01:35:37;17.83;;;12.80;;
51368;SDS011;37459;51.416;5.502;2022-08-20T01:38:06;20.00;;;13.43;;
51368;SDS011;37459;51.416;5.502;2022-08-20T01:43:44;21.80;;;13.80;;
51368;SDS011;37459;51.416;5.502;2022-08-20T01:46:11;22.20;;;14.63;;
51368;SDS011;37459;51.416;5.502;2022-08-20T01:48:39;20.15;;;14.25;;
51368;SDS011;37459;51.416;5.502;2022-08-20T01:51:08;21.70;;;15.05;;
51368;SDS011;37459;51.416;5.502;2022-08-20T01:53:39;20.45;;;14.90;;
51368;SDS011;37459;51.416;5.502;2022-08-20T01:56:08;22.75;;;15.20;;
51368;SDS011;37459;51.416;5.502;2022-08-20T01:58:40;27.10;;;17.38;;
51368;SDS011;37459;51.416;5.502;2022-08-20T02:01:17;24.00;;;16.80;;
51368;SDS011;37459;51.416;5.502;2022-08-20T02:03:45;21.85;;;16.65;;
51368;SDS011;37459;51.416;5.502;2022-08-20T02:06:11;26.67;;;18.52;;
51368;SDS011;37459;51.416;5.502;2022-08-20T02:08:37;24.77;;;17.58;;
51368;SDS011;37459;51.416;5.502;2022-08-20T02:11:04;24.17;;;18.08;;
51368;SDS011;37459;51.416;5.502;2022-08-20T02:13:30;26.75;;;19.45;;
51368;SDS011;37459;51.416;5.502;2022-08-20T02:15:59;28.38;;;19.95;;
51368;SDS011;37459;51.416;5.502;2022-08-20T02:18:25;27.33;;;20.58;;
51368;SDS011;37459;51.416;5.502;2022-08-20T02:20:52;32.00;;;21.90;;
51368;SDS011;37459;51.416;5.502;2022-08-20T02:23:19;29.40;;;21.65;;
51368;SDS011;37459;51.416;5.502;2022-08-20T02:25:45;34.45;;;23.42;;
51368;SDS011;37459;51.416;5.502;2022-08-20T02:28:13;33.47;;;21.95;;
51368;SDS011;37459;51.416;5.502;2022-08-20T02:30:43;32.85;;;23.05;;
51368;SDS011;37459;51.416;5.502;2022-08-20T02:33:14;33.80;;;23.63;;
51368;SDS011;37459;51.416;5.502;2022-08-20T02:35:43;34.47;;;23.88;;
51368;SDS011;37459;51.416;5.502;2022-08-20T02:38:12;34.53;;;24.92;;
51368;SDS011;37459;51.416;5.502;2022-08-20T02:40:40;35.15;;;24.35;;
51368;SDS011;37459;51.416;5.502;2022-08-20T02:43:08;38.60;;;25.45;;
51368;SDS011;37459;51.416;5.502;2022-08-20T02:45:35;35.17;;;24.52;;
51368;SDS011;37459;51.416;5.502;2022-08-20T02:48:08;36.63;;;24.90;;
51368;SDS011;37459;51.416;5.502;2022-08-20T02:50:37;38.35;;;25.15;;
51368;SDS011;37459;51.416;5.502;2022-08-20T02:53:08;36.75;;;25.55;;
51368;SDS011;37459;51.416;5.502;2022-08-20T02:55:34;35.33;;;24.48;;
51368;SDS011;37459;51.416;5.502;2022-08-20T02:58:00;35.58;;;26.13;;
51368;SDS011;37459;51.416;5.502;2022-08-20T03:00:28;35.80;;;25.67;;
51368;SDS011;37459;51.416;5.502;2022-08-20T03:02:56;37.13;;;25.67;;
51368;SDS011;37459;51.416;5.502;2022-08-20T03:05:23;42.15;;;26.35;;
51368;SDS011;37459;51.416;5.502;2022-08-20T03:07:51;42.20;;;28.10;;
51368;SDS011;37459;51.416;5.502;2022-08-20T03:10:22;40.85;;;28.05;;
51368;SDS011;37459;51.416;5.502;2022-08-20T03:12:49;45.00;;;29.48;;
51368;SDS011;37459;51.416;5.502;2022-08-20T03:15:17;43.03;;;29.48;;
51368;SDS011;37459;51.416;5.502;2022-08-20T03:17:44;43.80;;;28.88;;
51368;SDS011;37459;51.416;5.502;2022-08-20T03:20:11;39.83;;;27.90;;
51368;SDS011;37459;51.416;5.502;2022-08-20T03:22:38;50.05;;;29.15;;
51368;SDS011;37459;51.416;5.502;2022-08-20T03:25:07;41.42;;;28.00;;
51368;SDS011;37459;51.416;5.502;2022-08-20T03:27:35;45.90;;;30.33;;
51368;SDS011;37459;51.416;5.502;2022-08-20T03:30:02;49.38;;;30.42;;
51368;SDS011;37459;51.416;5.502;2022-08-20T03:32:30;49.88;;;30.90;;
51368;SDS011;37459;51.416;5.502;2022-08-20T03:34:56;48.20;;;31.10;;
51368;SDS011;37459;51.416;5.502;2022-08-20T03:37:23;46.03;;;30.50;;
51368;SDS011;37459;51.416;5.502;2022-08-20T03:39:49;47.88;;;30.45;;
51368;SDS011;37459;51.416;5.502;2022-08-20T03:42:17;41.67;;;27.80;;
51368;SDS011;37459;51.416;5.502;2022-08-20T03:44:43;42.03;;;26.20;;
51368;SDS011;37459;51.416;5.502;2022-08-20T03:47:10;39.00;;;24.98;;
51368;SDS011;37459;51.416;5.502;2022-08-20T03:49:36;42.45;;;25.80;;
51368;SDS011;37459;51.416;5.502;2022-08-20T03:52:03;36.53;;;23.45;;
51368;SDS011;37459;51.416;5.502;2022-08-20T03:54:30;36.70;;;22.25;;
51368;SDS011;37459;51.416;5.502;2022-08-20T03:56:57;35.88;;;22.27;;
51368;SDS011;37459;51.416;5.502;2022-08-20T03:59:25;37.72;;;23.33;;
51368;SDS011;37459;51.416;5.502;2022-08-20T04:01:52;39.53;;;23.42;;
51368;SDS011;37459;51.416;5.502;2022-08-20T04:04:18;36.92;;;23.20;;
51368;SDS011;37459;51.416;5.502;2022-08-20T04:06:46;37.67;;;23.65;;
51368;SDS011;37459;51.416;5.502;2022-08-20T04:09:12;33.92;;;22.58;;
51368;SDS011;37459;51.416;5.502;2022-08-20T04:11:39;33.42;;;21.95;;
51368;SDS011;37459;51.416;5.502;2022-08-20T04:14:06;33.80;;;21.10;;
51368;SDS011;37459;51.416;5.502;2022-08-20T04:16:34;32.10;;;22.23;;
51368;SDS011;37459;51.416;5.502;2022-08-20T04:19:01;33.08;;;22.23;;
51368;SDS011;37459;51.416;5.502;2022-08-20T04:21:28;31.88;;;21.90;;
51368;SDS011;37459;51.416;5.502;2022-08-20T04:23:56;36.58;;;21.98;;
51368;SDS011;37459;51.416;5.502;2022-08-20T04:26:23;39.40;;;23.92;;
51368;SDS011;37459;51.416;5.502;2022-08-20T04:28:50;38.53;;;24.15;;
51368;SDS011;37459;51.416;5.502;2022-08-20T04:31:19;35.78;;;24.00;;
51368;SDS011;37459;51.416;5.502;2022-08-20T04:33:50;36.47;;;24.85;;
51368;SDS011;37459;51.416;5.502;2022-08-20T04:36:16;37.47;;;24.20;;
51368;SDS011;37459;51.416;5.502;2022-08-20T04:38:43;37.00;;;25.58;;
51368;SDS011;37459;51.416;5.502;2022-08-20T04:41:12;33.38;;;24.27;;
51368;SDS011;37459;51.416;5.502;2022-08-20T04:43:39;37.53;;;25.40;;
51368;SDS011;37459;51.416;5.502;2022-08-20T04:46:07;42.60;;;25.65;;
51368;SDS011;37459;51.416;5.502;2022-08-20T04:48:34;39.75;;;27.55;;
51368;SDS011;37459;51.416;5.502;2022-08-20T04:51:04;43.63;;;26.45;;
51368;SDS011;37459;51.416;5.502;2022-08-20T04:53:39;45.50;;;27.60;;
51368;SDS011;37459;51.416;5.502;2022-08-20T04:56:06;44.63;;;26.25;;
51368;SDS011;37459;51.416;5.502;2022-08-20T04:58:34;41.58;;;27.48;;
51368;SDS011;37459;51.416;5.502;2022-08-20T05:01:03;46.70;;;27.98;;
51368;SDS011;37459;51.416;5.502;2022-08-20T05:03:32;49.15;;;28.27;;
51368;SDS011;37459;51.416;5.502;2022-08-20T05:05:59;41.85;;;27.77;;
51368;SDS011;37459;51.416;5.502;2022-08-20T05:08:27;41.67;;;28.42;;
51368;SDS011;37459;51.416;5.502;2022-08-20T05:10:55;41.20;;;27.77;;
51368;SDS011;37459;51.416;5.502;2022-08-20T05:13:22;43.72;;;28.05;;
51368;SDS011;37459;51.416;5.502;2022-08-20T05:15:49;40.42;;;27.17;;
51368;SDS011;37459;51.416;5.502;2022-08-20T05:18:17;45.58;;;27.13;;
51368;SDS011;37459;51.416;5.502;2022-08-20T05:20:45;39.53;;;26.85;;
51368;SDS011;37459;51.416;5.502;2022-08-20T05:23:13;42.67;;;26.90;;
51368;SDS011;37459;51.416;5.502;2022-08-20T05:25:44;41.20;;;25.90;;
51368;SDS011;37459;51.416;5.502;2022-08-20T05:28:16;48.25;;;26.38;;
51368;SDS011;37459;51.416;5.502;2022-08-20T05:30:44;40.38;;;26.42;;
51368;SDS011;37459;51.416;5.502;2022-08-20T05:33:12;43.95;;;27.05;;
51368;SDS011;37459;51.416;5.502;2022-08-20T05:35:44;44.55;;;26.92;;
51368;SDS011;37459;51.416;5.502;2022-08-20T05:38:12;44.03;;;27.88;;
51368;SDS011;37459;51.416;5.502;2022-08-20T05:40:40;45.60;;;27.98;;
51368;SDS011;37459;51.416;5.502;2022-08-20T05:43:08;47.70;;;28.63;;
51368;SDS011;37459;51.416;5.502;2022-08-20T05:45:36;43.53;;;27.48;;
51368;SDS011;37459;51.416;5.502;2022-08-20T05:48:04;47.30;;;28.42;;
51368;SDS011;37459;51.416;5.502;2022-08-20T05:50:31;49.22;;;29.70;;
51368;SDS011;37459;51.416;5.502;2022-08-20T05:52:58;50.13;;;30.52;;
51368;SDS011;37459;51.416;5.502;2022-08-20T05:55:25;50.70;;;31.08;;
51368;SDS011;37459;51.416;5.502;2022-08-20T05:57:55;51.10;;;31.00;;
51368;SDS011;37459;51.416;5.502;2022-08-20T06:00:23;47.25;;;29.60;;
51368;SDS011;37459;51.416;5.502;2022-08-20T06:02:49;65.90;;;41.03;;
51368;SDS011;37459;51.416;5.502;2022-08-20T06:05:33;52.33;;;29.30;;
51368;SDS011;37459;51.416;5.502;2022-08-20T06:08:00;47.70;;;27.50;;
51368;SDS011;37459;51.416;5.502;2022-08-20T06:10:29;53.78;;;29.35;;
51368;SDS011;37459;51.416;5.502;2022-08-20T06:12:56;45.50;;;27.13;;
51368;SDS011;37459;51.416;5.502;2022-08-20T06:15:23;42.05;;;27.40;;
51368;SDS011;37459;51.416;5.502;2022-08-20T06:17:50;50.08;;;27.63;;
51368;SDS011;37459;51.416;5.502;2022-08-20T06:20:16;46.35;;;26.58;;
51368;SDS011;37459;51.416;5.502;2022-08-20T06:22:43;45.40;;;26.92;;
51368;SDS011;37459;51.416;5.502;2022-08-20T06:25:10;51.15;;;26.27;;
51368;SDS011;37459;51.416;5.502;2022-08-20T06:27:36;50.58;;;28.02;;
51368;SDS011;37459;51.416;5.502;2022-08-20T06:30:04;49.45;;;26.80;;
51368;SDS011;37459;51.416;5.502;2022-08-20T06:32:33;45.35;;;25.60;;
51368;SDS011;37459;51.416;5.502;2022-08-20T06:35:00;44.38;;;26.10;;
51368;SDS011;37459;51.416;5.502;2022-08-20T06:37:27;54.75;;;29.00;;
51368;SDS011;37459;51.416;5.502;2022-08-20T06:39:54;52.97;;;27.55;;
51368;SDS011;37459;51.416;5.502;2022-08-20T06:42:24;48.58;;;25.67;;
51368;SDS011;37459;51.416;5.502;2022-08-20T06:44:51;47.55;;;25.73;;
51368;SDS011;37459;51.416;5.502;2022-08-20T06:47:18;42.88;;;23.98;;
51368;SDS011;37459;51.416;5.502;2022-08-20T06:49:47;48.35;;;26.75;;
51368;SDS011;37459;51.416;5.502;2022-08-20T06:52:13;50.90;;;25.08;;
51368;SDS011;37459;51.416;5.502;2022-08-20T06:54:41;40.10;;;21.58;;
51368;SDS011;37459;51.416;5.502;2022-08-20T06:57:07;43.42;;;24.98;;
51368;SDS011;37459;51.416;5.502;2022-08-20T06:59:34;47.83;;;26.73;;
51368;SDS011;37459;51.416;5.502;2022-08-20T07:02:00;48.03;;;25.88;;
51368;SDS011;37459;51.416;5.502;2022-08-20T07:04:27;46.78;;;26.80;;
51368;SDS011;37459;51.416;5.502;2022-08-20T07:06:55;49.45;;;28.23;;
51368;SDS011;37459;51.416;5.502;2022-08-20T07:09:22;47.10;;;27.27;;
51368;SDS011;37459;51.416;5.502;2022-08-20T07:11:50;50.85;;;27.92;;
51368;SDS011;37459;51.416;5.502;2022-08-20T07:14:17;49.17;;;27.95;;
51368;SDS011;37459;51.416;5.502;2022-08-20T07:16:44;50.50;;;27.52;;
51368;SDS011;37459;51.416;5.502;2022-08-20T07:19:12;50.72;;;27.83;;
51368;SDS011;37459;51.416;5.502;2022-08-20T07:21:39;50.60;;;26.17;;
51368;SDS011;37459;51.416;5.502;2022-08-20T07:24:07;47.42;;;26.58;;
51368;SDS011;37459;51.416;5.502;2022-08-20T07:26:34;45.50;;;27.52;;
51368;SDS011;37459;51.416;5.502;2022-08-20T07:29:00;41.95;;;25.83;;
51368;SDS011;37459;51.416;5.502;2022-08-20T07:31:27;49.90;;;26.60;;
51368;SDS011;37459;51.416;5.502;2022-08-20T07:34:11;51.47;;;27.25;;
51368;SDS011;37459;51.416;5.502;2022-08-20T07:36:37;56.88;;;29.73;;
51368;SDS011;37459;51.416;5.502;2022-08-20T07:39:04;56.28;;;29.60;;
51368;SDS011;37459;51.416;5.502;2022-08-20T07:41:32;48.30;;;26.80;;
51368;SDS011;37459;51.416;5.502;2022-08-20T07:43:58;54.67;;;28.02;;
51368;SDS011;37459;51.416;5.502;2022-08-20T07:46:25;51.35;;;27.65;;
51368;SDS011;37459;51.416;5.502;2022-08-20T07:48:53;56.10;;;28.05;;
51368;SDS011;37459;51.416;5.502;2022-08-20T07:51:20;49.47;;;27.25;;
51368;SDS011;37459;51.416;5.502;2022-08-20T07:53:47;51.20;;;26.55;;
51368;SDS011;37459;51.416;5.502;2022-08-20T07:56:16;51.97;;;28.75;;
51368;SDS011;37459;51.416;5.502;2022-08-20T07:58:48;51.35;;;27.10;;
51368;SDS011;37459;51.416;5.502;2022-08-20T08:01:16;49.78;;;26.70;;
51368;SDS011;37459;51.416;5.502;2022-08-20T08:03:44;46.63;;;26.60;;
51368;SDS011;37459;51.416;5.502;2022-08-20T08:06:11;51.28;;;28.35;;
51368;SDS011;37459;51.416;5.502;2022-08-20T08:08:38;57.63;;;28.38;;
51368;SDS011;37459;51.416;5.502;2022-08-20T08:11:06;50.67;;;28.35;;
51368;SDS011;37459;51.416;5.502;2022-08-20T08:13:34;48.70;;;26.88;;
51368;SDS011;37459;51.416;5.502;2022-08-20T08:16:06;56.28;;;27.77;;
51368;SDS011;37459;51.416;5.502;2022-08-20T08:18:34;52.97;;;28.00;;
51368;SDS011;37459;51.416;5.502;2022-08-20T08:21:04;49.60;;;27.52;;
51368;SDS011;37459;51.416;5.502;2022-08-20T08:23:32;46.58;;;26.60;;
51368;SDS011;37459;51.416;5.502;2022-08-20T08:25:59;49.42;;;28.40;;
51368;SDS011;37459;51.416;5.502;2022-08-20T08:28:26;51.38;;;26.98;;
51368;SDS011;37459;51.416;5.502;2022-08-20T08:30:53;48.47;;;26.35;;
51368;SDS011;37459;51.416;5.502;2022-08-20T08:33:22;49.83;;;26.02;;
51368;SDS011;37459;51.416;5.502;2022-08-20T08:35:55;52.78;;;26.70;;
51368;SDS011;37459;51.416;5.502;2022-08-20T08:38:23;49.13;;;25.52;;
51368;SDS011;37459;51.416;5.502;2022-08-20T08:40:51;46.33;;;25.83;;
51368;SDS011;37459;51.416;5.502;2022-08-20T08:43:21;49.83;;;26.38;;
51368;SDS011;37459;51.416;5.502;2022-08-20T08:45:52;45.65;;;26.58;;
51368;SDS011;37459;51.416;5.502;2022-08-20T08:48:26;46.38;;;25.23;;
51368;SDS011;37459;51.416;5.502;2022-08-20T08:50:58;43.67;;;24.17;;
51368;SDS011;37459;51.416;5.502;2022-08-20T08:53:27;46.40;;;26.35;;
51368;SDS011;37459;51.416;5.502;2022-08-20T08:55:58;44.10;;;25.10;;
51368;SDS011;37459;51.416;5.502;2022-08-20T08:58:25;40.60;;;24.83;;
51368;SDS011;37459;51.416;5.502;2022-08-20T09:00:52;44.50;;;24.67;;
51368;SDS011;37459;51.416;5.502;2022-08-20T09:03:26;44.50;;;25.65;;
51368;SDS011;37459;51.416;5.502;2022-08-20T09:05:57;41.38;;;23.42;;
51368;SDS011;37459;51.416;5.502;2022-08-20T09:08:27;35.47;;;22.70;;
51368;SDS011;37459;51.416;5.502;2022-08-20T09:10:59;39.38;;;23.63;;
51368;SDS011;37459;51.416;5.502;2022-08-20T09:13:27;41.45;;;23.88;;
51368;SDS011;37459;51.416;5.502;2022-08-20T09:15:54;33.30;;;21.02;;
51368;SDS011;37459;51.416;5.502;2022-08-20T09:18:20;35.25;;;20.75;;
51368;SDS011;37459;51.416;5.502;2022-08-20T09:20:48;37.33;;;21.10;;
51368;SDS011;37459;51.416;5.502;2022-08-20T09:23:14;33.00;;;20.13;;
51368;SDS011;37459;51.416;5.502;2022-08-20T09:25:41;28.73;;;18.83;;
51368;SDS011;37459;51.416;5.502;2022-08-20T09:28:07;31.00;;;18.42;;
51368;SDS011;37459;51.416;5.502;2022-08-20T09:30:34;31.10;;;18.63;;
51368;SDS011;37459;51.416;5.502;2022-08-20T09:33:01;31.67;;;18.83;;
51368;SDS011;37459;51.416;5.502;2022-08-20T09:35:27;25.92;;;17.77;;
51368;SDS011;37459;51.416;5.502;2022-08-20T09:37:55;33.58;;;17.77;;
51368;SDS011;37459;51.416;5.502;2022-08-20T09:40:22;26.90;;;17.02;;
51368;SDS011;37459;51.416;5.502;2022-08-20T09:42:48;25.52;;;17.58;;
51368;SDS011;37459;51.416;5.502;2022-08-20T09:45:15;28.88;;;16.23;;
51368;SDS011;37459;51.416;5.502;2022-08-20T09:47:42;30.85;;;16.92;;
51368;SDS011;37459;51.416;5.502;2022-08-20T09:50:09;23.02;;;15.18;;
51368;SDS011;37459;51.416;5.502;2022-08-20T09:52:36;24.55;;;13.80;;
51368;SDS011;37459;51.416;5.502;2022-08-20T09:55:12;21.77;;;13.10;;
51368;SDS011;37459;51.416;5.502;2022-08-20T09:57:43;22.42;;;13.10;;
51368;SDS011;37459;51.416;5.502;2022-08-20T10:00:10;22.40;;;11.73;;
51368;SDS011;37459;51.416;5.502;2022-08-20T10:02:37;17.15;;;11.25;;
51368;SDS011;37459;51.416;5.502;2022-08-20T10:05:04;18.92;;;11.90;;
51368;SDS011;37459;51.416;5.502;2022-08-20T10:07:31;22.38;;;14.07;;
51368;SDS011;37459;51.416;5.502;2022-08-20T10:09:58;20.63;;;12.00;;
51368;SDS011;37459;51.416;5.502;2022-08-20T10:12:26;18.58;;;11.73;;
51368;SDS011;37459;51.416;5.502;2022-08-20T10:14:53;17.67;;;10.82;;
51368;SDS011;37459;51.416;5.502;2022-08-20T10:17:20;18.65;;;9.88;;
51368;SDS011;37459;51.416;5.502;2022-08-20T10:19:46;18.55;;;9.40;;
51368;SDS011;37459;51.416;5.502;2022-08-20T10:22:13;20.75;;;9.80;;
51368;SDS011;37459;51.416;5.502;2022-08-20T10:24:39;16.52;;;9.57;;
51368;SDS011;37459;51.416;5.502;2022-08-20T10:27:06;20.13;;;8.63;;
51368;SDS011;37459;51.416;5.502;2022-08-20T10:29:34;13.18;;;6.93;;
51368;SDS011;37459;51.416;5.502;2022-08-20T10:32:06;11.73;;;5.85;;
51368;SDS011;37459;51.416;5.502;2022-08-20T10:34:36;9.50;;;5.35;;
51368;SDS011;37459;51.416;5.502;2022-08-20T10:37:02;13.23;;;5.78;;
51368;SDS011;37459;51.416;5.502;2022-08-20T10:39:29;13.50;;;4.90;;
51368;SDS011;37459;51.416;5.502;2022-08-20T10:41:55;9.68;;;4.90;;
51368;SDS011;37459;51.416;5.502;2022-08-20T10:44:22;11.57;;;4.70;;
51368;SDS011;37459;51.416;5.502;2022-08-20T10:46:49;11.52;;;4.28;;
51368;SDS011;37459;51.416;5.502;2022-08-20T10:49:16;12.23;;;4.60;;
51368;SDS011;37459;51.416;5.502;2022-08-20T10:51:42;7.38;;;3.63;;
51368;SDS011;37459;51.416;5.502;2022-08-20T10:54:09;9.13;;;3.95;;
51368;SDS011;37459;51.416;5.502;2022-08-20T10:56:35;13.10;;;3.47;;
51368;SDS011;37459;51.416;5.502;2022-08-20T10:59:01;11.23;;;3.83;;
51368;SDS011;37459;51.416;5.502;2022-08-20T11:01:28;9.70;;;3.80;;
51368;SDS011;37459;51.416;5.502;2022-08-20T11:03:56;8.07;;;3.63;;
51368;SDS011;37459;51.416;5.502;2022-08-20T11:06:23;11.00;;;3.70;;
51368;SDS011;37459;51.416;5.502;2022-08-20T11:08:50;11.80;;;3.55;;
51368;SDS011;37459;51.416;5.502;2022-08-20T11:11:16;9.60;;;3.63;;
51368;SDS011;37459;51.416;5.502;2022-08-20T11:13:42;9.52;;;3.80;;
51368;SDS011;37459;51.416;5.502;2022-08-20T11:16:09;9.15;;;4.07;;
51368;SDS011;37459;51.416;5.502;2022-08-20T11:18:35;11.00;;;3.88;;
51368;SDS011;37459;51.416;5.502;2022-08-20T11:21:03;10.75;;;4.10;;
51368;SDS011;37459;51.416;5.502;2022-08-20T11:23:30;12.38;;;4.15;;
51368;SDS011;37459;51.416;5.502;2022-08-20T11:25:56;7.25;;;3.60;;
51368;SDS011;37459;51.416;5.502;2022-08-20T11:28:23;9.52;;;4.18;;
51368;SDS011;37459;51.416;5.502;2022-08-20T11:30:49;8.85;;;4.30;;
51368;SDS011;37459;51.416;5.502;2022-08-20T11:33:16;10.55;;;5.00;;
51368;SDS011;37459;51.416;5.502;2022-08-20T11:35:43;11.27;;;4.85;;
51368;SDS011;37459;51.416;5.502;2022-08-20T11:38:10;12.77;;;4.22;;
51368;SDS011;37459;51.416;5.502;2022-08-20T11:40:37;8.40;;;4.20;;
51368;SDS011;37459;51.416;5.502;2022-08-20T11:43:04;9.85;;;4.85;;
51368;SDS011;37459;51.416;5.502;2022-08-20T11:45:30;10.30;;;5.55;;
51368;SDS011;37459;51.416;5.502;2022-08-20T11:47:57;12.50;;;5.93;;
51368;SDS011;37459;51.416;5.502;2022-08-20T11:50:23;11.10;;;5.38;;
51368;SDS011;37459;51.416;5.502;2022-08-20T11:52:50;10.32;;;5.00;;
51368;SDS011;37459;51.416;5.502;2022-08-20T11:57:45;11.48;;;5.70;;
51368;SDS011;37459;51.416;5.502;2022-08-20T12:00:13;12.52;;;6.78;;
51368;SDS011;37459;51.416;5.502;2022-08-20T12:02:42;14.77;;;6.55;;
51368;SDS011;37459;51.416;5.502;2022-08-20T12:05:09;19.85;;;9.73;;
51368;SDS011;37459;51.416;5.502;2022-08-20T12:07:37;15.88;;;8.25;;
51368;SDS011;37459;51.416;5.502;2022-08-20T12:10:04;14.27;;;7.20;;
51368;SDS011;37459;51.416;5.502;2022-08-20T12:12:32;16.23;;;7.10;;
51368;SDS011;37459;51.416;5.502;2022-08-20T12:14:59;18.42;;;7.05;;
51368;SDS011;37459;51.416;5.502;2022-08-20T12:17:26;16.63;;;6.70;;
51368;SDS011;37459;51.416;5.502;2022-08-20T12:19:58;14.35;;;6.28;;
51368;SDS011;37459;51.416;5.502;2022-08-20T12:22:26;16.45;;;6.07;;
51368;SDS011;37459;51.416;5.502;2022-08-20T12:24:53;11.52;;;6.13;;
51368;SDS011;37459;51.416;5.502;2022-08-20T12:27:20;13.63;;;5.47;;
51368;SDS011;37459;51.416;5.502;2022-08-20T12:29:51;11.48;;;5.47;;
51368;SDS011;37459;51.416;5.502;2022-08-20T12:32:19;14.52;;;5.45;;
51368;SDS011;37459;51.416;5.502;2022-08-20T12:34:47;13.35;;;4.90;;
51368;SDS011;37459;51.416;5.502;2022-08-20T12:37:14;11.63;;;5.13;;
51368;SDS011;37459;51.416;5.502;2022-08-20T12:39:44;14.63;;;4.50;;
51368;SDS011;37459;51.416;5.502;2022-08-20T12:42:13;10.77;;;3.88;;
51368;SDS011;37459;51.416;5.502;2022-08-20T12:44:40;10.15;;;3.83;;
51368;SDS011;37459;51.416;5.502;2022-08-20T12:47:10;9.30;;;3.88;;
51368;SDS011;37459;51.416;5.502;2022-08-20T12:49:38;10.15;;;4.30;;
51368;SDS011;37459;51.416;5.502;2022-08-20T12:52:07;10.68;;;4.20;;
51368;SDS011;37459;51.416;5.502;2022-08-20T12:54:34;9.82;;;3.95;;
51368;SDS011;37459;51.416;5.502;2022-08-20T12:57:00;12.05;;;5.05;;
51368;SDS011;37459;51.416;5.502;2022-08-20T12:59:27;8.55;;;3.55;;
51368;SDS011;37459;51.416;5.502;2022-08-20T13:01:53;9.70;;;3.92;;
51368;SDS011;37459;51.416;5.502;2022-08-20T13:04:21;10.27;;;4.32;;
51368;SDS011;37459;51.416;5.502;2022-08-20T13:06:48;14.20;;;3.90;;
51368;SDS011;37459;51.416;5.502;2022-08-20T13:09:15;10.18;;;4.05;;
51368;SDS011;37459;51.416;5.502;2022-08-20T13:11:41;11.27;;;4.88;;
51368;SDS011;37459;51.416;5.502;2022-08-20T13:14:09;11.68;;;3.80;;
51368;SDS011;37459;51.416;5.502;2022-08-20T13:16:35;10.82;;;3.60;;
51368;SDS011;37459;51.416;5.502;2022-08-20T13:19:02;9.65;;;3.17;;
51368;SDS011;37459;51.416;5.502;2022-08-20T13:21:29;9.20;;;2.88;;
51368;SDS011;37459;51.416;5.502;2022-08-20T13:23:56;10.70;;;4.57;;
51368;SDS011;37459;51.416;5.502;2022-08-20T13:26:22;11.52;;;3.40;;
51368;SDS011;37459;51.416;5.502;2022-08-20T13:28:49;7.95;;;2.70;;
51368;SDS011;37459;51.416;5.502;2022-08-20T13:31:15;9.18;;;2.92;;
51368;SDS011;37459;51.416;5.502;2022-08-20T13:33:42;7.95;;;2.60;;
51368;SDS011;37459;51.416;5.502;2022-08-20T13:36:08;9.10;;;3.20;;
51368;SDS011;37459;51.416;5.502;2022-08-20T13:38:36;7.68;;;2.78;;
51368;SDS011;37459;51.416;5.502;2022-08-20T13:41:02;10.07;;;3.15;;
51368;SDS011;37459;51.416;5.502;2022-08-20T13:43:29;8.80;;;2.75;;
51368;SDS011;37459;51.416;5.502;2022-08-20T13:45:55;8.00;;;3.05;;
51368;SDS011;37459;51.416;5.502;2022-08-20T13:48:22;9.57;;;3.22;;
51368;SDS011;37459;51.416;5.502;2022-08-20T13:50:48;10.68;;;3.95;;
51368;SDS011;37459;51.416;5.502;2022-08-20T13:53:15;9.85;;;4.25;;
51368;SDS011;37459;51.416;5.502;2022-08-20T13:55:43;12.52;;;4.40;;
51368;SDS011;37459;51.416;5.502;2022-08-20T13:58:09;14.18;;;4.70;;
51368;SDS011;37459;51.416;5.502;2022-08-20T14:00:36;12.10;;;5.50;;
51368;SDS011;37459;51.416;5.502;2022-08-20T14:03:03;10.68;;;5.43;;
51368;SDS011;37459;51.416;5.502;2022-08-20T14:05:32;11.75;;;5.25;;
51368;SDS011;37459;51.416;5.502;2022-08-20T14:08:03;9.73;;;5.00;;
51368;SDS011;37459;51.416;5.502;2022-08-20T14:10:31;16.42;;;7.57;;
51368;SDS011;37459;51.416;5.502;2022-08-20T14:12:59;12.02;;;4.88;;
51368;SDS011;37459;51.416;5.502;2022-08-20T14:15:27;8.80;;;5.20;;
51368;SDS011;37459;51.416;5.502;2022-08-20T14:17:54;11.13;;;5.28;;
51368;SDS011;37459;51.416;5.502;2022-08-20T14:20:23;16.25;;;5.10;;
51368;SDS011;37459;51.416;5.502;2022-08-20T14:22:51;10.32;;;4.57;;
51368;SDS011;37459;51.416;5.502;2022-08-20T14:25:18;11.70;;;4.78;;
51368;SDS011;37459;51.416;5.502;2022-08-20T14:27:46;8.93;;;4.97;;
51368;SDS011;37459;51.416;5.502;2022-08-20T14:30:16;10.65;;;4.57;;
51368;SDS011;37459;51.416;5.502;2022-08-20T14:32:44;12.05;;;4.70;;
51368;SDS011;37459;51.416;5.502;2022-08-20T14:35:10;12.73;;;5.03;;